Time;durP1;ratioP1;P1;durP2;ratioP2;P2;SDS_P1;SDS_P2;PMS_P1;PMS_P2;Temp;Humidity;BMP_temperature;BMP_pressure;BME280_temperature;BME280_humidity;BME280_pressure;Samples;Min_cycle;Max_cycle;Signal;HPM_P1;HPM_P2
2023/07/13 00:00:32;;;;;;;9.38;2.97;;;;;;;18.91;69.99;101331.13;7396633;19;20055;-54
2023/07/13 00:02:59;;;;;;;6.70;2.90;;;;;;;18.98;69.96;101327.69;7397421;19;20082;-53
2023/07/13 00:05:27;;;;;;;6.60;2.88;;;;;;;18.87;70.61;101330.59;7396278;19;20031;-54
2023/07/13 00:07:55;;;;;;;9.30;2.90;;;;;;;18.93;70.13;101329.16;7397504;19;20022;-54
2023/07/13 00:10:22;;;;;;;5.65;2.58;;;;;;;18.86;70.90;101333.44;7392059;19;20398;-58
2023/07/13 00:12:50;;;;;;;6.28;2.80;;;;;;;18.90;70.29;101326.78;7389650;19;20018;-58
2023/07/13 00:15:22;;;;;;;7.38;3.15;;;;;;;18.96;69.56;101340.44;7393107;19;20122;-59
2023/07/13 00:17:51;;;;;;;8.75;3.20;;;;;;;18.94;69.44;101342.41;7394123;19;20032;-58
2023/07/13 00:20:24;;;;;;;7.60;3.30;;;;;;;18.96;69.45;101335.06;7394696;19;20019;-58
2023/07/13 00:22:53;;;;;;;8.27;3.47;;;;;;;18.92;69.42;101339.00;7393245;19;20014;-58
2023/07/13 00:25:24;;;;;;;6.47;3.10;;;;;;;18.88;69.64;101340.31;7394103;19;20489;-59
2023/07/13 00:27:51;;;;;;;8.00;3.20;;;;;;;18.80;69.81;101352.81;7395159;19;20026;-59
2023/07/13 00:30:19;;;;;;;6.00;3.10;;;;;;;18.80;69.54;101342.94;7394220;19;20082;-58
2023/07/13 00:32:46;;;;;;;7.88;3.63;;;;;;;18.78;69.65;101350.31;7392771;19;20043;-58
2023/07/13 00:35:15;;;;;;;6.85;3.10;;;;;;;18.78;69.88;101354.84;7393711;19;20015;-58
2023/07/13 00:37:42;;;;;;;5.40;3.00;;;;;;;18.72;69.94;101350.91;7396188;19;20022;-58
2023/07/13 00:40:12;;;;;;;7.28;3.28;;;;;;;18.63;69.90;101349.94;7394026;19;20495;-59
2023/07/13 00:42:41;;;;;;;6.72;3.72;;;;;;;18.74;69.20;101340.88;7394343;19;20027;-59
2023/07/13 00:45:11;;;;;;;8.38;3.47;;;;;;;18.76;69.24;101354.97;7392996;19;20048;-58
2023/07/13 00:47:41;;;;;;;8.00;3.30;;;;;;;18.70;69.52;101350.19;7393724;19;20049;-56
2023/07/13 00:50:16;;;;;;;7.07;3.80;;;;;;;18.63;69.55;101363.34;7394214;19;20018;-55
2023/07/13 00:52:47;;;;;;;6.28;2.88;;;;;;;18.66;69.14;101355.00;7392976;19;20061;-56
2023/07/13 00:55:15;;;;;;;10.50;3.90;;;;;;;18.67;69.33;101347.81;7391616;19;20056;-56
2023/07/13 00:57:44;;;;;;;6.13;3.13;;;;;;;18.70;68.73;101351.06;7393079;19;20018;-56
2023/07/13 01:00:12;;;;;;;8.85;3.40;;;;;;;18.68;68.66;101353.00;7391983;19;20022;-55
2023/07/13 01:02:42;;;;;;;5.57;3.08;;;;;;;18.61;68.86;101346.56;7393967;19;20017;-57
2023/07/13 01:05:15;;;;;;;7.25;3.50;;;;;;;18.53;69.31;101349.16;7393215;19;20082;-58
2023/07/13 01:07:43;;;;;;;;;;;;;;;18.32;69.52;101354.78;7394274;19;20026;-56
2023/07/13 01:10:12;;;;;;;8.93;3.40;;;;;;;18.34;70.07;101349.25;7391966;19;20322;-56
2023/07/13 01:12:40;;;;;;;7.68;2.90;;;;;;;18.52;69.55;101348.31;7392185;19;20045;-56
2023/07/13 01:15:37;;;;;;;8.45;3.28;;;;;;;18.62;69.10;101350.94;7391030;19;20018;-55
2023/07/13 01:18:11;;;;;;;5.25;3.20;;;;;;;18.58;68.88;101352.22;7393530;19;20018;-58
2023/07/13 01:20:39;;;;;;;6.72;3.28;;;;;;;18.51;69.57;101351.16;7392255;19;20043;-56
2023/07/13 01:23:08;;;;;;;7.78;3.42;;;;;;;18.57;69.28;101349.69;7391493;19;20106;-54
2023/07/13 01:25:37;;;;;;;6.80;3.40;;;;;;;18.61;68.92;101343.88;7392115;19;20079;-56
2023/07/13 01:28:08;;;;;;;7.13;3.33;;;;;;;18.68;68.28;101344.13;7392177;19;20108;-56
2023/07/13 01:30:38;;;;;;;9.38;3.55;;;;;;;18.68;67.91;101342.28;7392892;19;20041;-58
2023/07/13 01:33:09;;;;;;;8.85;3.75;;;;;;;18.60;68.15;101341.34;7392019;19;20390;-58
2023/07/13 01:35:37;;;;;;;6.88;3.25;;;;;;;18.56;68.14;101345.31;7392113;19;20068;-58
2023/07/13 01:38:05;;;;;;;7.70;2.95;;;;;;;18.52;67.99;101345.63;7396562;19;20528;-58
2023/07/13 01:40:32;;;;;;;7.93;3.35;;;;;;;18.50;67.98;101341.41;7392265;19;20019;-58
2023/07/13 01:43:00;;;;;;;8.82;3.75;;;;;;;18.54;67.66;101344.63;7390440;19;20492;-58
2023/07/13 01:45:28;;;;;;;7.78;2.97;;;;;;;18.45;67.87;101347.22;7391652;19;20030;-62
2023/07/13 01:47:55;;;;;;;7.40;3.35;;;;;;;18.47;68.04;101344.41;7392104;19;20023;-58
2023/07/13 01:50:23;;;;;;;7.80;3.33;;;;;;;18.45;67.87;101344.53;7391159;19;20043;-57
2023/07/13 01:52:50;;;;;;;7.85;3.45;;;;;;;18.40;67.84;101338.78;7391596;19;20022;-57
2023/07/13 01:55:18;;;;;;;5.75;3.03;;;;;;;18.45;67.47;101341.00;7390579;19;20035;-57
2023/07/13 01:57:45;;;;;;;6.60;3.20;;;;;;;18.45;67.61;101343.69;7392106;19;20034;-57
2023/07/13 02:00:13;;;;;;;7.60;3.28;;;;;;;18.41;67.63;101342.31;7391177;19;20023;-57
2023/07/13 02:02:41;;;;;;;8.07;3.40;;;;;;;18.40;67.35;101343.31;7392266;19;20014;-56
2023/07/13 02:05:12;;;;;;;11.60;3.65;;;;;;;18.52;66.91;101347.47;7390700;19;20392;-55
2023/07/13 02:07:41;;;;;;;9.68;3.47;;;;;;;18.51;66.79;101346.63;7391908;19;20019;-58
2023/07/13 02:10:10;;;;;;;9.77;3.40;;;;;;;18.52;66.85;101345.63;7389885;19;20014;-59
2023/07/13 02:12:38;;;;;;;8.65;3.75;;;;;;;18.54;66.31;101339.25;7390432;19;20039;-59
2023/07/13 02:15:05;;;;;;;7.82;3.45;;;;;;;18.54;66.26;101344.63;7389945;19;20022;-59
2023/07/13 02:17:34;;;;;;;9.38;3.83;;;;;;;18.52;66.43;101348.31;7389759;19;20027;-57
2023/07/13 02:20:03;;;;;;;12.20;3.92;;;;;;;18.50;66.60;101347.59;7391240;19;20025;-57
2023/07/13 02:22:30;;;;;;;11.40;4.07;;;;;;;18.43;66.99;101341.16;7389370;19;20016;-57
2023/07/13 02:24:58;;;;;;;7.88;3.92;;;;;;;18.53;66.94;101346.47;7389526;19;20022;-57
2023/07/13 02:27:25;;;;;;;9.18;3.83;;;;;;;18.51;66.86;101343.09;7391163;19;20031;-57
2023/07/13 02:29:53;;;;;;;8.60;3.83;;;;;;;18.48;66.83;101336.19;7390319;19;20039;-57
2023/07/13 02:32:20;;;;;;;9.77;4.30;;;;;;;18.40;67.10;101337.94;7389271;19;20039;-57
2023/07/13 02:34:48;;;;;;;11.90;4.72;;;;;;;18.37;67.41;101336.41;7390510;19;20023;-59
2023/07/13 02:37:15;;;;;;;9.07;4.30;;;;;;;18.34;66.99;101322.44;7393219;19;20011;-59
2023/07/13 02:39:42;;;;;;;9.57;4.18;;;;;;;18.38;67.24;101332.72;7390236;19;20544;-59
2023/07/13 02:42:09;;;;;;;10.32;3.80;;;;;;;18.32;67.15;101329.81;7387020;19;20019;-57
2023/07/13 02:44:37;;;;;;;10.75;4.30;;;;;;;18.39;66.70;101331.75;7388675;19;20026;-59
2023/07/13 02:47:04;;;;;;;8.15;3.97;;;;;;;18.42;66.97;101325.22;7390023;19;20531;-57
2023/07/13 02:49:32;;;;;;;9.73;3.80;;;;;;;18.41;66.74;101328.91;7390178;19;20500;-54
2023/07/13 02:51:59;;;;;;;9.77;4.00;;;;;;;18.38;66.82;101335.38;7388456;19;20035;-54
2023/07/13 02:54:27;;;;;;;9.98;3.88;;;;;;;18.31;nan;101331.63;7388372;19;20022;-55
2023/07/13 02:56:54;;;;;;;9.15;3.60;;;;;;;18.31;66.61;101325.41;7389727;19;20015;-54
2023/07/13 02:59:21;;;;;;;12.98;4.55;;;;;;;18.29;66.28;101328.25;7390095;19;20042;-55
2023/07/13 03:01:49;;;;;;;10.70;3.88;;;;;;;18.24;66.74;101327.88;7388603;19;20024;-57
2023/07/13 03:04:19;;;;;;;10.77;3.78;;;;;;;18.28;66.62;101334.63;7390427;19;20019;-56
2023/07/13 03:06:47;;;;;;;9.35;3.45;;;;;;;18.28;66.29;101339.97;7390000;19;20538;-57
2023/07/13 03:09:14;;;;;;;6.15;3.25;;;;;;;18.30;66.12;101339.81;7389588;19;20038;-57
2023/07/13 03:11:41;;;;;;;9.65;3.38;;;;;;;18.28;66.26;101342.66;7388228;19;20038;-57
2023/07/13 03:14:09;;;;;;;10.88;3.58;;;;;;;18.22;66.22;101340.56;7387985;19;20025;-57
2023/07/13 03:16:36;;;;;;;13.90;3.65;;;;;;;18.29;66.17;101348.88;7388417;19;20039;-58
2023/07/13 03:19:03;;;;;;;11.63;3.40;;;;;;;18.24;65.92;101344.78;7385816;19;20028;-58
2023/07/13 03:21:31;;;;;;;11.57;3.80;;;;;;;18.37;65.32;101346.28;7388873;19;20044;-58
2023/07/13 03:26:33;;;;;;;8.88;3.40;;;;;;;18.23;65.83;101350.28;7354614;19;20007;-58
2023/07/13 03:29:01;;;;;;;12.10;3.17;;;;;;;18.32;65.71;101352.09;7399672;19;20059;-58
2023/07/13 03:31:32;;;;;;;8.13;3.05;;;;;;;18.37;65.78;101346.28;7396632;19;20115;-59
2023/07/13 03:33:59;;;;;;;11.05;3.40;;;;;;;18.36;65.64;101356.16;7395452;19;20018;-60
2023/07/13 03:36:28;;;;;;;11.70;3.20;;;;;;;18.33;65.72;101353.78;7392932;19;20019;-60
2023/07/13 03:38:59;;;;;;;7.85;2.88;;;;;;;18.39;65.54;101352.31;7396518;19;20018;-60
2023/07/13 03:41:26;;;;;;;11.00;3.17;;;;;;;18.33;65.63;101353.78;7395698;19;20018;-59
2023/07/13 03:43:53;;;;;;;9.88;3.35;;;;;;;18.32;66.04;101360.16;7396028;19;20455;-59
2023/07/13 03:46:21;;;;;;;9.70;3.08;;;;;;;18.36;65.58;101364.22;7392729;19;20018;-59
2023/07/13 03:48:48;;;;;;;9.85;2.97;;;;;;;18.39;65.66;101363.91;7396284;19;20038;-59
2023/07/13 03:51:17;;;;;;;11.25;3.10;;;;;;;18.39;65.89;101360.38;7396140;19;20010;-59
2023/07/13 03:53:46;;;;;;;9.65;2.85;;;;;;;18.39;65.83;101361.25;7393203;19;20498;-60
2023/07/13 03:56:15;;;;;;;10.30;3.03;;;;;;;18.41;65.82;101361.91;7392927;19;20015;-59
2023/07/13 03:58:45;;;;;;;9.45;2.40;;;;;;;18.43;66.09;101362.63;7396301;19;20007;-59
2023/07/13 04:01:13;;;;;;;11.57;2.83;;;;;;;18.50;65.65;101361.00;7395431;19;20500;-58
2023/07/13 04:03:40;;;;;;;12.55;3.13;;;;;;;18.42;66.20;101368.13;7395599;19;20035;-59
2023/07/13 04:06:15;;;;;;;13.02;3.03;;;;;;;18.50;65.84;101370.91;7392903;19;20512;-59
2023/07/13 04:08:42;;;;;;;10.23;2.70;;;;;;;18.49;65.83;101370.06;7394892;19;20021;-59
2023/07/13 04:11:09;;;;;;;10.55;3.00;;;;;;;18.42;66.27;101357.41;7395630;19;20014;-60
2023/07/13 04:13:36;;;;;;;11.35;2.47;;;;;;;18.49;65.69;101366.53;7392742;19;20073;-59
2023/07/13 04:16:04;;;;;;;9.32;2.83;;;;;;;18.57;65.50;101365.78;7391348;19;20022;-58
2023/07/13 04:18:31;;;;;;;9.43;3.20;;;;;;;18.51;65.94;101360.03;7394935;19;20842;-59
2023/07/13 04:20:59;;;;;;;11.20;2.92;;;;;;;18.43;66.15;101369.81;7395403;19;20363;-59
2023/07/13 04:23:26;;;;;;;9.63;2.80;;;;;;;18.47;65.54;101371.22;7394982;19;20022;-59
2023/07/13 04:25:53;;;;;;;13.75;2.97;;;;;;;18.51;65.78;101375.28;7390163;19;20086;-60
2023/07/13 04:28:23;;;;;;;12.25;2.83;;;;;;;18.51;65.82;101360.03;7394490;19;20014;-60
2023/07/13 04:30:51;;;;;;;9.50;2.63;;;;;;;18.56;65.70;101372.16;7394512;19;20019;-58
2023/07/13 04:33:22;;;;;;;9.30;2.85;;;;;;;18.56;65.32;101373.00;7395069;19;20031;-58
2023/07/13 04:35:54;;;;;;;9.38;2.35;;;;;;;18.59;65.26;101375.38;7392326;19;20018;-61
2023/07/13 04:38:27;;;;;;;12.32;2.83;;;;;;;18.64;64.80;101372.25;7394796;19;20015;-60
2023/07/13 04:41:00;;;;;;;14.98;3.03;;;;;;;18.68;65.03;101387.03;7394174;19;20041;-60
2023/07/13 04:43:29;;;;;;;15.07;2.90;;;;;;;18.53;65.05;101373.28;7392393;19;20340;-61
2023/07/13 04:45:57;;;;;;;11.18;2.33;;;;;;;18.57;65.17;101371.16;7391821;19;20022;-58
2023/07/13 04:48:25;;;;;;;12.25;2.65;;;;;;;18.64;64.94;101375.75;7394039;19;20088;-59
2023/07/13 04:50:57;;;;;;;10.25;2.60;;;;;;;18.62;64.91;101374.22;7394129;19;20022;-59
2023/07/13 04:53:25;;;;;;;14.70;2.90;;;;;;;18.59;65.09;101374.53;7392935;19;20015;-59
2023/07/13 04:55:52;;;;;;;10.77;2.72;;;;;;;18.66;64.97;101379.16;7391352;19;20014;-59
2023/07/13 04:58:21;;;;;;;11.70;2.63;;;;;;;18.79;65.12;101381.50;7391850;19;20026;-59
2023/07/13 05:00:49;;;;;;;11.88;2.75;;;;;;;18.75;64.64;101391.69;7392083;19;20039;-59
2023/07/13 05:03:16;;;;;;;12.07;2.75;;;;;;;18.69;64.90;101381.50;7392827;19;20463;-59
2023/07/13 05:05:58;;;;;;;10.40;2.72;;;;;;;18.74;65.17;101389.16;7391652;19;20023;-60
2023/07/13 05:08:26;;;;;;;9.73;2.25;;;;;;;18.71;65.23;101387.63;7392734;19;20019;-60
2023/07/13 05:10:53;;;;;;;10.90;2.60;;;;;;;18.83;65.48;101382.88;7393083;19;20015;-60
2023/07/13 05:13:21;;;;;;;11.65;2.67;;;;;;;18.88;65.00;101394.00;7390913;19;20019;-59
2023/07/13 05:15:57;;;;;;;13.70;2.55;;;;;;;18.94;64.60;101390.72;7391724;19;20055;-59
2023/07/13 05:18:24;;;;;;;9.68;2.30;;;;;;;18.92;65.02;101399.91;7392844;19;20028;-60
2023/07/13 05:21:00;;;;;;;10.02;2.75;;;;;;;19.02;65.02;101398.00;7393126;19;20010;-60
2023/07/13 05:23:28;;;;;;;12.15;2.95;;;;;;;18.77;65.75;101402.25;7392690;19;20014;-60
2023/07/13 05:25:55;;;;;;;10.95;2.70;;;;;;;18.75;65.70;101402.44;7391179;19;20081;-61
2023/07/13 05:28:23;;;;;;;12.35;2.42;;;;;;;18.73;66.02;101407.13;7392783;19;20085;-61
2023/07/13 05:30:51;;;;;;;13.30;2.85;;;;;;;18.87;65.65;101415.63;7392417;19;20082;-62
2023/07/13 05:33:19;;;;;;;11.77;2.70;;;;;;;18.78;65.63;101416.56;7394056;19;20043;-61
2023/07/13 05:35:46;;;;;;;13.18;2.85;;;;;;;18.73;66.22;101414.28;7390555;19;20407;-61
2023/07/13 05:38:13;;;;;;;12.43;2.45;;;;;;;18.71;65.53;101414.47;7392445;19;20047;-61
2023/07/13 05:40:46;;;;;;;10.93;2.50;;;;;;;18.67;65.97;101410.34;7391940;19;20014;-60
2023/07/13 05:43:14;;;;;;;13.83;2.80;;;;;;;18.71;65.56;101411.78;7392205;19;20026;-60
2023/07/13 05:45:41;;;;;;;11.77;3.13;;;;;;;18.68;65.65;101420.09;7388219;19;20022;-60
2023/07/13 05:48:08;;;;;;;15.95;3.25;;;;;;;18.78;65.31;101416.56;7392059;19;20554;-60
2023/07/13 05:50:36;;;;;;;11.82;3.03;;;;;;;18.86;65.15;101419.31;7391823;19;20040;-59
2023/07/13 05:53:03;;;;;;;10.82;2.78;;;;;;;18.99;64.78;101415.25;7392306;19;20022;-60
2023/07/13 05:55:31;;;;;;;11.23;3.08;;;;;;;19.04;64.86;101422.88;7390542;19;20015;-60
2023/07/13 05:58:00;;;;;;;13.32;2.83;;;;;;;18.99;65.04;101430.53;7392079;19;20066;-60
2023/07/13 06:00:27;;;;;;;16.33;2.88;;;;;;;18.97;65.13;101427.16;7392200;19;20024;-60
2023/07/13 06:02:56;;;;;;;11.55;3.10;;;;;;;19.04;65.40;101425.56;7391718;19;20047;-59
2023/07/13 06:05:24;;;;;;;10.20;3.00;;;;;;;19.13;65.46;101421.13;7390076;19;20044;-59
2023/07/13 06:07:51;;;;;;;14.02;2.97;;;;;;;19.18;65.15;101427.72;7391314;19;20014;-59
2023/07/13 06:10:18;;;;;;;11.13;2.72;;;;;;;19.07;65.19;101424.41;7389975;19;20019;-59
2023/07/13 06:12:46;;;;;;;12.88;3.10;;;;;;;19.19;64.92;101434.78;7391040;19;20015;-58
2023/07/13 06:15:13;;;;;;;13.55;3.50;;;;;;;19.29;64.81;101432.00;7388803;19;20025;-59
2023/07/13 06:17:45;;;;;;;13.05;3.22;;;;;;;19.18;65.18;101430.38;7390886;19;20034;-59
2023/07/13 06:20:12;;;;;;;12.95;2.58;;;;;;;19.22;65.17;101433.63;7391427;19;20044;-59
2023/07/13 06:22:39;;;;;;;11.35;2.92;;;;;;;19.28;65.28;101440.22;7390972;19;20517;-59
2023/07/13 06:25:07;;;;;;;15.77;3.20;;;;;;;19.36;64.70;101443.00;7389842;19;20018;-59
2023/07/13 06:27:34;;;;;;;11.88;3.25;;;;;;;19.30;65.40;101443.59;7390673;19;20048;-60
2023/07/13 06:30:02;;;;;;;15.07;3.38;;;;;;;19.39;64.99;101448.06;7390513;19;20487;-59
2023/07/13 06:32:29;;;;;;;11.57;3.20;;;;;;;19.48;65.28;101447.13;7388778;19;20019;-59
2023/07/13 06:34:56;;;;;;;12.48;3.25;;;;;;;19.58;64.54;101442.53;7388739;19;20015;-60
2023/07/13 06:37:24;;;;;;;13.85;3.53;;;;;;;19.71;64.43;101448.38;7390666;19;20023;-61
2023/07/13 06:39:51;;;;;;;9.18;3.03;;;;;;;19.81;63.83;101452.81;7388524;19;20051;-60
2023/07/13 06:42:18;;;;;;;12.60;3.30;;;;;;;19.90;63.93;101446.50;7390518;19;20011;-61
2023/07/13 06:44:45;;;;;;;17.50;3.55;;;;;;;19.98;63.89;101443.84;7389197;19;20018;-60
2023/07/13 06:47:13;;;;;;;13.95;3.15;;;;;;;20.02;63.95;101444.38;7390254;19;20492;-61
2023/07/13 06:49:40;;;;;;;18.75;3.70;;;;;;;19.99;63.73;101444.69;7389845;19;20022;-61
2023/07/13 06:52:07;;;;;;;12.27;3.03;;;;;;;19.98;63.72;101445.72;7389828;19;20019;-60
2023/07/13 06:54:35;;;;;;;10.63;3.10;;;;;;;20.01;63.31;101450.78;7388203;19;20385;-60
2023/07/13 06:57:02;;;;;;;11.20;3.05;;;;;;;19.99;63.45;101456.28;7395956;19;20023;-60
2023/07/13 06:59:29;;;;;;;12.60;3.40;;;;;;;19.85;63.98;101460.41;7398043;19;20014;-60
2023/07/13 07:01:57;;;;;;;8.70;2.70;;;;;;;19.74;64.30;101452.59;7397472;19;20547;-61
2023/07/13 07:04:24;;;;;;;8.57;2.53;;;;;;;19.63;64.67;101455.53;7397097;19;20086;-61
2023/07/13 07:06:51;;;;;;;13.18;3.25;;;;;;;19.68;64.78;101458.56;7393720;19;20014;-61
2023/07/13 07:09:19;;;;;;;14.05;3.22;;;;;;;19.62;65.36;101464.59;7397770;19;20014;-61
2023/07/13 07:11:46;;;;;;;12.10;2.92;;;;;;;19.70;64.62;101457.44;7396946;19;20479;-60
2023/07/13 07:14:29;;;;;;;12.23;3.08;;;;;;;19.60;65.03;101455.78;7395455;19;20014;-60
2023/07/13 07:16:58;;;;;;;11.50;3.28;;;;;;;19.66;64.13;101465.97;7396659;19;20014;-60
2023/07/13 07:19:29;;;;;;;11.77;3.35;;;;;;;19.74;64.41;101462.50;7397585;19;20011;-61
2023/07/13 07:21:56;;;;;;;11.93;3.10;;;;;;;19.95;63.48;101468.38;7396477;19;20018;-60
2023/07/13 07:24:24;;;;;;;11.82;3.28;;;;;;;20.14;63.26;101456.56;7397222;19;20018;-61
2023/07/13 07:26:51;;;;;;;11.23;2.72;;;;;;;20.34;62.62;101460.75;7393592;19;20022;-60
2023/07/13 07:29:22;;;;;;;12.68;3.13;;;;;;;20.16;63.09;101465.34;7395554;19;20373;-60
2023/07/13 07:31:52;;;;;;;12.05;3.20;;;;;;;20.09;63.19;101461.59;7396492;19;20074;-60
2023/07/13 07:34:24;;;;;;;9.35;2.92;;;;;;;20.13;63.08;101463.78;7399096;19;20031;-59
2023/07/13 07:36:51;;;;;;;11.48;3.00;;;;;;;20.07;63.82;101461.75;7393423;19;20170;-58
2023/07/13 07:39:21;;;;;;;12.45;3.05;;;;;;;20.15;63.77;101448.34;7396187;19;20015;-59
2023/07/13 07:41:49;;;;;;;11.68;3.08;;;;;;;20.14;63.41;101456.56;7396634;19;20011;-59
2023/07/13 07:44:19;;;;;;;12.90;3.25;;;;;;;20.23;63.06;101450.25;7395770;19;20035;-59
2023/07/13 07:46:46;;;;;;;10.60;3.10;;;;;;;20.57;62.16;101453.00;7392688;19;20085;-60
2023/07/13 07:49:14;;;;;;;13.75;2.95;;;;;;;20.67;62.01;101460.91;7395682;19;20036;-60
2023/07/13 07:51:44;;;;;;;10.25;2.95;;;;;;;20.57;62.13;101461.06;7396190;19;20030;-59
2023/07/13 07:54:11;;;;;;;8.75;2.97;;;;;;;20.60;62.32;101458.03;7395320;19;20016;-60
2023/07/13 07:56:48;;;;;;;11.48;2.88;;;;;;;20.50;62.26;101461.88;7392684;19;20019;-60
2023/07/13 07:59:37;;;;;;;10.15;3.00;;;;;;;20.66;61.79;101456.56;7395714;19;20085;-60
2023/07/13 08:02:10;;;;;;;7.33;2.40;;;;;;;20.79;60.42;101462.31;7395779;19;20014;-59
2023/07/13 08:04:57;;;;;;;9.52;2.58;;;;;;;20.72;60.62;101458.59;7392028;19;20023;-59
2023/07/13 08:07:31;;;;;;;8.65;2.90;;;;;;;20.91;60.26;101458.34;7394240;19;20018;-59
2023/07/13 08:09:58;;;;;;;10.63;2.78;;;;;;;20.93;60.26;101467.09;7395122;19;20014;-59
2023/07/13 08:12:26;;;;;;;9.88;3.22;;;;;;;20.71;60.53;101462.28;7395083;19;20018;-59
2023/07/13 08:15:00;;;;;;;7.85;2.58;;;;;;;20.74;61.00;101461.97;7393158;19;20018;-60
2023/07/13 08:17:28;;;;;;;10.75;3.10;;;;;;;20.88;59.87;101472.13;7395587;19;20340;-59
2023/07/13 08:19:55;;;;;;;8.40;2.45;;;;;;;20.87;59.51;101465.06;7394850;19;20024;-60
2023/07/13 08:22:23;;;;;;;8.88;2.75;;;;;;;20.76;59.93;101469.88;7395173;19;20035;-60
2023/07/13 08:24:55;;;;;;;11.50;2.90;;;;;;;20.63;60.10;101460.41;7393837;19;20488;-61
2023/07/13 08:27:25;;;;;;;7.85;2.75;;;;;;;20.66;59.91;101468.16;7394503;19;20015;-60
2023/07/13 08:29:53;;;;;;;7.78;2.80;;;;;;;20.77;59.95;101472.41;7394750;19;20022;-60
2023/07/13 08:32:21;;;;;;;10.82;2.80;;;;;;;21.00;59.82;101469.97;7393830;19;20014;-61
2023/07/13 08:34:49;;;;;;;11.88;2.90;;;;;;;21.01;59.48;101455.50;7397713;19;20043;-60
2023/07/13 08:37:17;;;;;;;8.90;2.70;;;;;;;21.08;59.31;101470.00;7394341;19;20105;-59
2023/07/13 08:39:44;;;;;;;10.10;2.90;;;;;;;20.94;59.15;101473.31;7394670;19;20488;-60
2023/07/13 08:42:14;;;;;;;10.48;2.72;;;;;;;20.93;59.46;101477.84;7393773;19;20025;-60
2023/07/13 08:44:55;;;;;;;9.07;2.50;;;;;;;21.04;58.89;101467.78;7393409;19;20010;-59
2023/07/13 08:47:24;;;;;;;9.30;3.00;;;;;;;21.05;59.05;101473.00;7394593;19;20090;-59
2023/07/13 08:49:52;;;;;;;8.50;2.70;;;;;;;21.26;58.08;101469.03;7393893;19;20093;-58
2023/07/13 08:52:36;;;;;;;8.18;2.80;;;;;;;21.50;58.30;101462.84;7394652;19;20039;-60
2023/07/13 08:55:12;;;;;;;9.93;2.67;;;;;;;21.46;57.32;101465.03;7392043;19;20595;-60
2023/07/13 08:57:42;;;;;;;8.60;2.80;;;;;;;21.43;57.53;101459.97;7394119;19;20029;-59
2023/07/13 09:00:12;;;;;;;9.73;2.63;;;;;;;21.42;57.62;101466.38;7393177;19;20524;-58
2023/07/13 09:02:54;;;;;;;8.95;2.95;;;;;;;21.62;56.81;101466.91;7393275;19;20520;-58
2023/07/13 09:05:39;;;;;;;9.43;2.83;;;;;;;21.73;56.38;101466.56;7391888;19;20039;-58
2023/07/13 09:08:46;;;;;;;7.55;2.53;;;;;;;21.58;55.84;101463.69;7389810;19;20389;-59
2023/07/13 09:11:13;;;;;;;8.70;2.70;;;;;;;21.41;56.84;101465.56;7396984;19;20025;-59
2023/07/13 09:13:57;;;;;;;6.18;2.50;;;;;;;21.31;57.32;101459.44;7393270;19;20015;-57
2023/07/13 09:16:24;;;;;;;9.65;2.90;;;;;;;21.15;57.89;101465.63;7392871;19;20026;-57
2023/07/13 09:18:56;;;;;;;8.65;2.90;;;;;;;21.20;58.07;101473.22;7392561;19;20025;-58
2023/07/13 09:21:33;;;;;;;8.38;3.00;;;;;;;21.40;57.64;101465.69;7392728;19;20047;-58
2023/07/13 09:24:25;;;;;;;10.65;3.00;;;;;;;21.55;57.18;101458.63;7393096;19;20070;-58
2023/07/13 09:26:52;;;;;;;9.63;2.92;;;;;;;21.61;56.38;101459.84;7388108;19;20021;-58
2023/07/13 09:29:28;;;;;;;8.27;2.42;;;;;;;21.69;55.19;101465.22;7394840;19;20077;-58
2023/07/13 09:32:01;;;;;;;9.60;2.88;;;;;;;21.76;54.79;101471.63;7392365;19;20014;-59
2023/07/13 09:34:30;;;;;;;9.45;2.53;;;;;;;21.59;55.38;101470.78;7395675;19;20035;-60
2023/07/13 09:36:57;;;;;;;8.13;2.58;;;;;;;21.75;54.83;101471.78;7392680;19;20006;-59
2023/07/13 09:39:33;;;;;;;6.57;2.40;;;;;;;21.94;53.91;101466.06;7389713;19;20382;-58
2023/07/13 09:42:03;;;;;;;10.13;2.50;;;;;;;21.78;53.88;101469.59;7392029;19;20520;-57
2023/07/13 09:44:35;;;;;;;5.53;1.83;;;;;;;21.80;53.25;101469.44;7391358;19;20035;-58
2023/07/13 09:47:14;;;;;;;7.20;2.00;;;;;;;21.90;54.15;101468.25;7391478;19;20015;-58
2023/07/13 09:49:43;;;;;;;6.88;2.13;;;;;;;21.86;53.56;101469.63;7392004;19;20026;-58
2023/07/13 09:52:14;;;;;;;8.07;2.10;;;;;;;21.95;53.53;101467.75;7391523;19;20150;-58
2023/07/13 09:54:48;;;;;;;5.90;2.03;;;;;;;21.94;52.83;101470.59;7393054;19;20027;-57
2023/07/13 09:57:18;;;;;;;7.03;1.98;;;;;;;21.74;52.79;101468.25;7391964;19;20043;-57
2023/07/13 09:59:49;;;;;;;6.97;1.90;;;;;;;21.54;51.89;101465.06;7396425;19;20024;-57
2023/07/13 10:02:26;;;;;;;6.38;2.10;;;;;;;21.51;50.50;101470.75;7388830;19;20530;-57
2023/07/13 10:04:59;;;;;;;5.82;1.95;;;;;;;21.77;50.82;101465.22;7390663;19;20081;-58
2023/07/13 10:07:27;;;;;;;4.60;2.08;;;;;;;22.05;50.23;101470.25;7391118;19;20022;-57
2023/07/13 10:10:00;;;;;;;7.55;2.00;;;;;;;22.20;50.32;101465.03;7390896;19;20022;-58
2023/07/13 10:12:35;;;;;;;5.53;1.83;;;;;;;22.07;49.94;101460.97;7391278;19;20014;-57
2023/07/13 10:15:04;;;;;;;6.35;2.42;;;;;;;21.94;50.82;101463.38;7389091;19;20018;-58
2023/07/13 10:17:54;;;;;;;7.50;2.20;;;;;;;22.00;51.01;101467.22;7390900;19;20032;-58
2023/07/13 10:20:22;;;;;;;7.60;2.38;;;;;;;21.94;50.73;101466.06;7390705;19;20019;-58
2023/07/13 10:23:01;;;;;;;5.90;1.83;;;;;;;21.99;50.88;101469.09;7390716;19;20011;-58
2023/07/13 10:25:34;;;;;;;6.13;2.20;;;;;;;22.29;50.04;101469.41;7388313;19;20022;-57
2023/07/13 10:28:21;;;;;;;7.25;2.20;;;;;;;22.66;49.20;101470.63;7391408;19;20021;-57
2023/07/13 10:30:49;;;;;;;5.35;1.95;;;;;;;22.67;49.34;101461.53;7392715;19;20022;-57
2023/07/13 10:33:17;;;;;;;5.32;1.98;;;;;;;22.78;49.95;101466.53;7392006;19;20023;-57
2023/07/13 10:35:46;;;;;;;5.85;2.00;;;;;;;22.75;49.37;101472.31;7390786;19;20022;-57
2023/07/13 10:38:20;;;;;;;7.53;2.20;;;;;;;22.53;50.60;101474.72;7390182;19;20356;-58
2023/07/13 10:40:57;;;;;;;5.68;2.33;;;;;;;22.52;50.65;101493.81;7390315;19;20074;-58
2023/07/13 10:43:36;;;;;;;5.50;2.13;;;;;;;21.98;51.38;101502.47;7390461;19;20089;-58
2023/07/13 10:46:07;;;;;;;7.05;2.00;;;;;;;21.73;51.89;101516.97;7391634;19;20058;-57
2023/07/13 10:48:36;;;;;;;5.90;1.60;;;;;;;21.52;52.25;101523.69;7390427;19;20030;-58
2023/07/13 10:51:06;;;;;;;5.10;1.58;;;;;;;21.31;53.22;101520.56;7389662;19;20378;-58
2023/07/13 10:53:36;;;;;;;2.47;1.30;;;;;;;21.02;53.56;101518.28;7388362;19;20075;-58
2023/07/13 10:56:16;;;;;;;1.65;1.10;;;;;;;21.00;54.03;101523.84;7388005;19;20478;-58
2023/07/13 10:58:44;;;;;;;4.25;1.30;;;;;;;21.06;53.85;101514.25;7389567;19;20023;-59
2023/07/13 11:01:13;;;;;;;3.70;1.60;;;;;;;20.99;54.13;101519.47;7389850;19;20104;-57
2023/07/13 11:03:58;;;;;;;8.68;3.50;;;;;;;21.04;54.51;101516.28;7390118;19;20055;-57
2023/07/13 11:06:31;;;;;;;7.80;3.78;;;;;;;20.88;55.05;101523.28;7387593;19;20043;-58
2023/07/13 11:09:18;;;;;;;5.68;2.50;;;;;;;20.91;56.40;101520.28;7389805;19;20035;-58
2023/07/13 11:11:46;;;;;;;5.35;1.83;;;;;;;20.83;57.26;101532.84;7388214;19;20011;-58
2023/07/13 11:14:27;;;;;;;4.82;1.80;;;;;;;20.84;56.89;101532.69;7388613;19;20035;-58
2023/07/13 11:16:55;;;;;;;5.32;1.85;;;;;;;20.75;56.58;101528.25;7387418;19;20015;-59
2023/07/13 11:19:26;;;;;;;4.90;1.70;;;;;;;20.76;56.62;101535.34;7388839;19;20022;-56
2023/07/13 11:22:13;;;;;;;3.67;1.70;;;;;;;20.78;56.98;101551.31;7389001;19;20039;-57
2023/07/13 11:24:48;;;;;;;3.17;1.60;;;;;;;20.63;57.65;101554.59;7390215;19;20487;-58
2023/07/13 11:27:37;;;;;;;5.07;1.50;;;;;;;20.50;56.98;101556.06;7389144;19;20025;-57
2023/07/13 11:30:20;;;;;;;4.93;1.60;;;;;;;20.50;57.41;101559.59;7390801;19;20062;-57
2023/07/13 11:32:52;;;;;;;2.72;1.70;;;;;;;20.68;56.86;101559.50;7389793;19;20018;-57
2023/07/13 11:35:26;;;;;;;4.57;1.85;;;;;;;20.96;56.61;101552.09;7387616;19;20022;-57
2023/07/13 11:37:53;;;;;;;5.40;1.80;;;;;;;21.03;55.77;101568.47;7388828;19;20017;-58